Flight Track Log - Related Links

Times and Time Zones

All times are in EST time to prevent confusion due to time zone crossing. See the CES5098 flight status page for this flight to view local times or setup timezone preferences in your user account.

Time Position Orientation Groundspeed Altitude Reporting Facility
EST Latitude Longitude Course Direction KTS MPH feet Rate Location/Type
Sat 04:29:00 AM 26.4222 121.5062 358° North  Level Estimated
Sat 04:30:00 AM 26.5018 121.5035 358° North  Level Estimated
Sat 04:31:00 AM 26.5814 121.5008 358° North  Level Estimated
Sat 04:32:00 AM 26.6609 121.4980 358° North  Level Estimated
Sat 04:33:00 AM 26.7405 121.4953 358° North  Level Estimated
Sat 04:34:00 AM 26.8201 121.4926 358° North  Level Estimated
Sat 04:35:00 AM 26.8996 121.4899 358° North  Level Estimated
Sat 04:36:00 AM 26.9792 121.4871 358° North  Level Estimated
Sat 04:37:00 AM 27.0588 121.4844 358° North  Level Estimated
Sat 04:38:00 AM 27.1383 121.4817 358° North  Level Estimated
Sat 04:39:00 AM 27.2179 121.4789 358° North  Level Estimated
Sat 04:40:00 AM 27.2975 121.4762 358° North  Level Estimated
Sat 04:41:00 AM 27.3771 121.4734 358° North  Level Estimated
Sat 04:42:00 AM 27.4566 121.4707 358° North  Level Estimated
Sat 04:43:00 AM 27.5362 121.4679 358° North  Level Estimated
Sat 04:44:00 AM 27.6158 121.4652 358° North  Level Estimated
Sat 04:45:00 AM 27.6953 121.4624 358° North  Level Estimated
Sat 04:46:00 AM 27.7749 121.4596 358° North  Level Estimated
Sat 04:47:00 AM 27.8545 121.4568 358° North  Level Estimated
Sat 04:48:00 AM 27.9340 121.4541 358° North  Level Estimated
Sat 04:49:00 AM 28.0136 121.4513 358° North  Level Estimated
Sat 04:50:00 AM 28.0932 121.4485 358° North  Level Estimated
Sat 04:51:00 AM 28.1728 121.4457 358° North  Level Estimated
Sat 04:52:00 AM 28.2523 121.4429 358° North  Level Estimated
Sat 04:53:00 AM 28.3319 121.4401 358° North  Level Estimated
Sat 04:54:00 AM 28.4115 121.4373 358° North  Level Estimated
Sat 04:55:00 AM 28.4910 121.4345 358° North  Level Estimated
Sat 04:56:00 AM 28.5706 121.4317 358° North  Level Estimated
Sat 04:57:00 AM 28.6502 121.4289 358° North  Level Estimated
Sat 04:58:00 AM 28.7297 121.4260 358° North  Level Estimated
Sat 04:59:00 AM 28.8093 121.4232 358° North  Level Estimated
Sat 05:00:00 AM 28.8889 121.4204 358° North  Level Estimated
Sat 05:01:00 AM 28.9685 121.4176 358° North  Level Estimated
Sat 05:02:00 AM 29.0480 121.4147 358° North  Level Estimated
Sat 05:03:00 AM 29.1276 121.4119 358° North  Level Estimated
Sat 05:04:00 AM 29.2072 121.4090 358° North  Level Estimated
Sat 05:05:00 AM 29.2867 121.4062 358° North  Level Estimated
Sat 05:06:00 AM 29.3663 121.4033 358° North  Level Estimated
Sat 05:07:00 AM 29.4459 121.4005 358° North  Level Estimated
Sat 05:08:00 AM 29.5254 121.3976 358° North  Level Estimated
Sat 05:09:00 AM 29.6050 121.3947 358° North  Level Estimated
Sat 05:10:00 AM 29.6846 121.3919 358° North  Level Estimated
Sat 05:11:00 AM 29.7642 121.3890 358° North  Level Estimated
Sat 05:12:00 AM 29.8437 121.3861 358° North  Level Estimated
Sat 05:13:00 AM 29.9233 121.3832 358° North  Level Estimated
Sat 05:14:00 AM 30.0029 121.3803 358° North  Level Estimated
Sat 05:15:00 AM 30.0824 121.3774 358° North  Level Estimated
Sat 05:16:00 AM 30.1620 121.3745 358° North  Level Estimated
Sat 05:17:00 AM 30.2416 121.3716 358° North  Level Estimated
Sat 05:18:00 AM 30.3211 121.3687 358° North  Level Estimated
Sat 05:19:00 AM 30.4007 121.3658 358° North  Level Estimated
Sat 05:20:00 AM 30.4803 121.3629 358° North  Level Estimated
Sat 05:21:00 AM 30.5599 121.3599 358° North  Level Estimated
Sat 05:22:00 AM 30.6394 121.3570 358° North  Level Estimated
Sat 05:23:00 AM 30.7190 121.3541 358° North  Level Estimated
Sat 05:24:00 AM 30.7986 121.3512 358° North  Level Estimated
Sat 05:25:00 AM 30.8781 121.3482 358° North  Level Estimated
Sat 05:26:00 AM 30.9577 121.3453 358° North  Level Estimated
Sat 05:27:00 AM 31.0373 121.3423 358° North  Level Estimated
Sat 05:28:00 AM 31.1168 121.3393 358° North  Level Estimated
Sat 05:29:00 AM 31.1964 121.3364 358° North  Level Estimated
Sat 05:30:00 AM 31.1979 121.3363 358° North  Level Estimated
Sat 05:31:00 AM 31.1979 121.3363 350° North  Level Estimated
Sat 05:32:00 AM 31.1979 121.3363 350° North  Level Estimated
Sat 05:33:00 AM 31.1979 121.3363 350° North  Level Estimated
Sat 05:34:00 AM 31.1979 121.3363 350° North  Level Estimated
Sat 05:35:00 AM 31.1979 121.3363 350° North  Level Estimated
Sat 05:36:00 AM 31.1979 121.3363 350° North  Level Estimated
Sat 05:37:00 AM 31.1979 121.3363 350° North  Level Estimated

Login

Don't have an account? Register now (free) for customized features, flight alerts, and more!